Terminal Aerodrome Forecast
Issued by NWS Wakefield, VA

Home | Current Version | Previous Version | Text Only | Print | Product List | Glossary On
Versions: 1 2 3 4 5 6 7 8 9 10 11 12 13 14 15
000
FTUS41 KAKQ 281700
TAFECG
TAF
KECG 281723Z 2818/0118 01010KT P6SM BKN100
     FM010000 04007KT P6SM BKN120 OVC200
     FM010700 03007KT P6SM OVC080
     FM011400 03008KT P6SM OVC035=

USA.gov is the U.S. government's official web portal to all federal, state and local government web resources and services.